sensor_id;sensor_type;location;lat;lon;timestamp;temperature;humidity
6662;DHT22;3367;48.714;8.994;2023-11-19T00:01:42;7.70;1.00
6662;DHT22;3367;48.714;8.994;2023-11-19T00:04:09;7.70;1.00
6662;DHT22;3367;48.714;8.994;2023-11-19T00:06:40;7.80;1.00
6662;DHT22;3367;48.714;8.994;2023-11-19T00:09:07;7.80;1.00
6662;DHT22;3367;48.714;8.994;2023-11-19T00:11:34;7.80;1.00
6662;DHT22;3367;48.714;8.994;2023-11-19T00:14:06;7.80;1.00
6662;DHT22;3367;48.714;8.994;2023-11-19T00:16:34;7.80;1.00
6662;DHT22;3367;48.714;8.994;2023-11-19T00:19:04;7.80;1.00
6662;DHT22;3367;48.714;8.994;2023-11-19T00:21:33;7.80;1.00
6662;DHT22;3367;48.714;8.994;2023-11-19T00:24:05;7.80;1.00
6662;DHT22;3367;48.714;8.994;2023-11-19T00:26:35;7.80;1.00
6662;DHT22;3367;48.714;8.994;2023-11-19T00:29:02;7.90;1.00
6662;DHT22;3367;48.714;8.994;2023-11-19T00:31:29;7.90;1.00
6662;DHT22;3367;48.714;8.994;2023-11-19T00:34:01;7.90;1.00
6662;DHT22;3367;48.714;8.994;2023-11-19T00:36:28;7.90;1.00
6662;DHT22;3367;48.714;8.994;2023-11-19T00:38:58;8.00;1.00
6662;DHT22;3367;48.714;8.994;2023-11-19T00:41:32;8.00;1.00
6662;DHT22;3367;48.714;8.994;2023-11-19T00:44:02;8.00;1.00
6662;DHT22;3367;48.714;8.994;2023-11-19T00:46:34;8.00;1.00
6662;DHT22;3367;48.714;8.994;2023-11-19T00:49:02;8.10;1.00
6662;DHT22;3367;48.714;8.994;2023-11-19T00:51:29;8.10;1.00
6662;DHT22;3367;48.714;8.994;2023-11-19T00:53:59;8.10;1.00
6662;DHT22;3367;48.714;8.994;2023-11-19T00:56:31;8.20;1.00
6662;DHT22;3367;48.714;8.994;2023-11-19T00:58:57;8.20;1.00
6662;DHT22;3367;48.714;8.994;2023-11-19T01:01:25;8.30;1.00
6662;DHT22;3367;48.714;8.994;2023-11-19T01:03:54;8.30;1.00
6662;DHT22;3367;48.714;8.994;2023-11-19T01:06:29;8.20;1.00
6662;DHT22;3367;48.714;8.994;2023-11-19T01:08:59;8.40;1.00
6662;DHT22;3367;48.714;8.994;2023-11-19T01:11:33;8.40;1.00
6662;DHT22;3367;48.714;8.994;2023-11-19T01:14:00;8.50;1.00
6662;DHT22;3367;48.714;8.994;2023-11-19T01:16:32;8.50;1.00
6662;DHT22;3367;48.714;8.994;2023-11-19T01:18:59;8.50;1.00
6662;DHT22;3367;48.714;8.994;2023-11-19T01:21:42;8.50;1.00
6662;DHT22;3367;48.714;8.994;2023-11-19T01:24:09;8.60;1.00
6662;DHT22;3367;48.714;8.994;2023-11-19T01:26:44;8.70;1.00
6662;DHT22;3367;48.714;8.994;2023-11-19T01:29:11;8.60;1.00
6662;DHT22;3367;48.714;8.994;2023-11-19T01:31:39;8.60;1.00
6662;DHT22;3367;48.714;8.994;2023-11-19T01:34:05;8.70;1.00
6662;DHT22;3367;48.714;8.994;2023-11-19T01:36:40;8.70;1.00
6662;DHT22;3367;48.714;8.994;2023-11-19T01:39:07;8.70;1.00
6662;DHT22;3367;48.714;8.994;2023-11-19T01:41:37;8.60;1.00
6662;DHT22;3367;48.714;8.994;2023-11-19T01:44:06;8.70;1.70
6662;DHT22;3367;48.714;8.994;2023-11-19T01:46:36;8.70;14.50
6662;DHT22;3367;48.714;8.994;2023-11-19T01:49:03;8.70;28.50
6662;DHT22;3367;48.714;8.994;2023-11-19T01:51:35;8.80;25.40
6662;DHT22;3367;48.714;8.994;2023-11-19T01:54:05;8.80;24.90
6662;DHT22;3367;48.714;8.994;2023-11-19T01:56:34;8.80;25.80
6662;DHT22;3367;48.714;8.994;2023-11-19T01:59:01;8.80;32.50
6662;DHT22;3367;48.714;8.994;2023-11-19T02:01:36;8.80;53.00
6662;DHT22;3367;48.714;8.994;2023-11-19T02:04:05;8.80;62.40
6662;DHT22;3367;48.714;8.994;2023-11-19T02:06:32;8.90;79.10
6662;DHT22;3367;48.714;8.994;2023-11-19T02:09:02;8.90;85.70
6662;DHT22;3367;48.714;8.994;2023-11-19T02:11:33;8.90;93.60
6662;DHT22;3367;48.714;8.994;2023-11-19T02:14:00;8.90;99.90
6662;DHT22;3367;48.714;8.994;2023-11-19T02:16:42;9.00;99.90
6662;DHT22;3367;48.714;8.994;2023-11-19T02:19:12;9.00;99.90
6662;DHT22;3367;48.714;8.994;2023-11-19T02:21:38;9.00;99.90
6662;DHT22;3367;48.714;8.994;2023-11-19T02:24:11;9.00;99.90
6662;DHT22;3367;48.714;8.994;2023-11-19T02:26:42;9.00;99.90
6662;DHT22;3367;48.714;8.994;2023-11-19T02:29:13;9.00;99.90
6662;DHT22;3367;48.714;8.994;2023-11-19T02:31:39;9.00;99.90
6662;DHT22;3367;48.714;8.994;2023-11-19T02:34:06;9.00;99.90
6662;DHT22;3367;48.714;8.994;2023-11-19T02:36:33;9.00;99.90
6662;DHT22;3367;48.714;8.994;2023-11-19T02:38:59;9.10;99.90
6662;DHT22;3367;48.714;8.994;2023-11-19T02:41:36;9.10;99.90
6662;DHT22;3367;48.714;8.994;2023-11-19T02:44:05;9.00;99.90
6662;DHT22;3367;48.714;8.994;2023-11-19T02:46:34;9.10;99.90
6662;DHT22;3367;48.714;8.994;2023-11-19T02:49:04;9.10;99.90
6662;DHT22;3367;48.714;8.994;2023-11-19T02:51:35;9.10;99.90
6662;DHT22;3367;48.714;8.994;2023-11-19T02:54:07;9.10;99.90
6662;DHT22;3367;48.714;8.994;2023-11-19T02:56:35;9.10;99.90
6662;DHT22;3367;48.714;8.994;2023-11-19T02:59:07;9.10;99.90
6662;DHT22;3367;48.714;8.994;2023-11-19T03:01:42;9.10;99.90
6662;DHT22;3367;48.714;8.994;2023-11-19T03:04:18;9.10;99.90
6662;DHT22;3367;48.714;8.994;2023-11-19T03:06:45;9.20;99.90
6662;DHT22;3367;48.714;8.994;2023-11-19T03:09:12;9.10;99.90
6662;DHT22;3367;48.714;8.994;2023-11-19T03:11:39;9.20;99.90
6662;DHT22;3367;48.714;8.994;2023-11-19T03:14:08;9.20;99.90
6662;DHT22;3367;48.714;8.994;2023-11-19T03:16:35;9.20;99.90
6662;DHT22;3367;48.714;8.994;2023-11-19T03:19:03;9.30;99.90
6662;DHT22;3367;48.714;8.994;2023-11-19T03:21:33;9.30;99.90
6662;DHT22;3367;48.714;8.994;2023-11-19T03:24:03;9.30;99.90
6662;DHT22;3367;48.714;8.994;2023-11-19T03:26:30;9.40;99.90
6662;DHT22;3367;48.714;8.994;2023-11-19T03:29:02;9.50;99.90
6662;DHT22;3367;48.714;8.994;2023-11-19T03:31:28;9.50;99.90
6662;DHT22;3367;48.714;8.994;2023-11-19T03:33:55;9.50;99.90
6662;DHT22;3367;48.714;8.994;2023-11-19T03:36:23;9.60;99.90
6662;DHT22;3367;48.714;8.994;2023-11-19T03:38:50;9.60;99.90
6662;DHT22;3367;48.714;8.994;2023-11-19T03:41:17;9.60;99.90
6662;DHT22;3367;48.714;8.994;2023-11-19T03:43:44;9.70;99.90
6662;DHT22;3367;48.714;8.994;2023-11-19T03:46:18;9.70;99.90
6662;DHT22;3367;48.714;8.994;2023-11-19T03:48:48;9.70;99.90
6662;DHT22;3367;48.714;8.994;2023-11-19T03:51:15;9.70;99.90
6662;DHT22;3367;48.714;8.994;2023-11-19T03:53:45;9.70;99.90
6662;DHT22;3367;48.714;8.994;2023-11-19T03:56:12;9.70;99.90
6662;DHT22;3367;48.714;8.994;2023-11-19T03:58:44;9.70;99.90
6662;DHT22;3367;48.714;8.994;2023-11-19T04:01:12;9.70;99.90
6662;DHT22;3367;48.714;8.994;2023-11-19T04:03:40;9.70;99.90
6662;DHT22;3367;48.714;8.994;2023-11-19T04:06:07;9.70;99.90
6662;DHT22;3367;48.714;8.994;2023-11-19T04:08:35;9.70;99.90
6662;DHT22;3367;48.714;8.994;2023-11-19T04:11:04;9.70;99.90
6662;DHT22;3367;48.714;8.994;2023-11-19T04:13:30;9.70;99.90
6662;DHT22;3367;48.714;8.994;2023-11-19T04:16:10;9.60;99.90
6662;DHT22;3367;48.714;8.994;2023-11-19T04:18:40;9.70;99.90
6662;DHT22;3367;48.714;8.994;2023-11-19T04:21:07;9.60;99.90
6662;DHT22;3367;48.714;8.994;2023-11-19T04:23:34;9.70;99.90
6662;DHT22;3367;48.714;8.994;2023-11-19T04:26:27;9.70;99.90
6662;DHT22;3367;48.714;8.994;2023-11-19T04:28:54;9.70;99.90
6662;DHT22;3367;48.714;8.994;2023-11-19T04:31:21;9.70;99.90
6662;DHT22;3367;48.714;8.994;2023-11-19T04:33:48;9.70;99.90
6662;DHT22;3367;48.714;8.994;2023-11-19T04:36:20;9.80;99.90
6662;DHT22;3367;48.714;8.994;2023-11-19T04:38:49;9.80;99.90
6662;DHT22;3367;48.714;8.994;2023-11-19T04:41:16;9.80;99.90
6662;DHT22;3367;48.714;8.994;2023-11-19T04:43:46;9.70;99.90
6662;DHT22;3367;48.714;8.994;2023-11-19T04:46:16;9.80;99.90
6662;DHT22;3367;48.714;8.994;2023-11-19T04:48:43;9.80;99.90
6662;DHT22;3367;48.714;8.994;2023-11-19T04:51:09;9.80;99.90
6662;DHT22;3367;48.714;8.994;2023-11-19T04:53:40;9.80;99.90
6662;DHT22;3367;48.714;8.994;2023-11-19T04:56:08;9.90;99.90
6662;DHT22;3367;48.714;8.994;2023-11-19T04:58:38;9.90;99.90
6662;DHT22;3367;48.714;8.994;2023-11-19T05:01:13;9.90;99.90
6662;DHT22;3367;48.714;8.994;2023-11-19T05:03:42;9.90;99.90
6662;DHT22;3367;48.714;8.994;2023-11-19T05:06:09;9.90;99.90
6662;DHT22;3367;48.714;8.994;2023-11-19T05:08:36;9.90;99.90
6662;DHT22;3367;48.714;8.994;2023-11-19T05:11:04;9.90;99.90
6662;DHT22;3367;48.714;8.994;2023-11-19T05:13:31;9.90;99.90
6662;DHT22;3367;48.714;8.994;2023-11-19T05:15:58;10.00;99.90
6662;DHT22;3367;48.714;8.994;2023-11-19T05:18:26;9.90;99.90
6662;DHT22;3367;48.714;8.994;2023-11-19T05:20:52;9.90;99.90
6662;DHT22;3367;48.714;8.994;2023-11-19T05:23:19;9.90;99.90
6662;DHT22;3367;48.714;8.994;2023-11-19T05:25:47;9.90;99.90
6662;DHT22;3367;48.714;8.994;2023-11-19T05:28:16;10.00;99.90
6662;DHT22;3367;48.714;8.994;2023-11-19T05:30:43;10.00;99.90
6662;DHT22;3367;48.714;8.994;2023-11-19T05:33:10;10.00;99.90
6662;DHT22;3367;48.714;8.994;2023-11-19T05:35:38;10.00;99.90
6662;DHT22;3367;48.714;8.994;2023-11-19T05:38:05;10.00;99.90
6662;DHT22;3367;48.714;8.994;2023-11-19T05:40:40;10.20;99.90
6662;DHT22;3367;48.714;8.994;2023-11-19T05:43:07;10.10;99.90
6662;DHT22;3367;48.714;8.994;2023-11-19T05:45:34;10.10;99.90
6662;DHT22;3367;48.714;8.994;2023-11-19T05:48:04;10.10;99.90
6662;DHT22;3367;48.714;8.994;2023-11-19T05:50:31;10.10;99.90
6662;DHT22;3367;48.714;8.994;2023-11-19T05:52:59;10.10;99.90
6662;DHT22;3367;48.714;8.994;2023-11-19T05:55:26;10.20;99.90
6662;DHT22;3367;48.714;8.994;2023-11-19T05:57:54;10.10;99.90
6662;DHT22;3367;48.714;8.994;2023-11-19T06:00:23;10.20;99.90
6662;DHT22;3367;48.714;8.994;2023-11-19T06:02:53;10.20;99.90
6662;DHT22;3367;48.714;8.994;2023-11-19T06:05:19;10.20;99.90
6662;DHT22;3367;48.714;8.994;2023-11-19T06:07:49;10.20;99.90
6662;DHT22;3367;48.714;8.994;2023-11-19T06:10:21;10.20;99.90
6662;DHT22;3367;48.714;8.994;2023-11-19T06:12:52;10.20;99.90
6662;DHT22;3367;48.714;8.994;2023-11-19T06:15:25;10.30;99.90
6662;DHT22;3367;48.714;8.994;2023-11-19T06:17:55;10.20;99.90
6662;DHT22;3367;48.714;8.994;2023-11-19T06:20:26;10.30;99.90
6662;DHT22;3367;48.714;8.994;2023-11-19T06:22:53;10.30;99.90
6662;DHT22;3367;48.714;8.994;2023-11-19T06:25:24;10.30;99.90
6662;DHT22;3367;48.714;8.994;2023-11-19T06:27:51;10.30;99.90
6662;DHT22;3367;48.714;8.994;2023-11-19T06:30:19;10.40;99.90
6662;DHT22;3367;48.714;8.994;2023-11-19T06:32:47;10.20;99.90
6662;DHT22;3367;48.714;8.994;2023-11-19T06:35:20;10.20;99.90
6662;DHT22;3367;48.714;8.994;2023-11-19T06:37:47;10.20;99.90
6662;DHT22;3367;48.714;8.994;2023-11-19T06:40:16;10.20;99.90
6662;DHT22;3367;48.714;8.994;2023-11-19T06:42:51;10.20;99.90
6662;DHT22;3367;48.714;8.994;2023-11-19T06:45:27;10.20;99.90
6662;DHT22;3367;48.714;8.994;2023-11-19T06:47:54;10.30;99.90
6662;DHT22;3367;48.714;8.994;2023-11-19T06:50:21;10.20;99.90
6662;DHT22;3367;48.714;8.994;2023-11-19T06:52:56;10.20;99.90
6662;DHT22;3367;48.714;8.994;2023-11-19T06:55:23;10.20;99.90
6662;DHT22;3367;48.714;8.994;2023-11-19T06:57:54;10.30;99.90
6662;DHT22;3367;48.714;8.994;2023-11-19T07:00:20;10.30;99.90
6662;DHT22;3367;48.714;8.994;2023-11-19T07:02:47;10.30;99.90
6662;DHT22;3367;48.714;8.994;2023-11-19T07:05:21;10.20;99.90
6662;DHT22;3367;48.714;8.994;2023-11-19T07:07:48;10.20;99.90
6662;DHT22;3367;48.714;8.994;2023-11-19T07:10:15;10.20;99.90
6662;DHT22;3367;48.714;8.994;2023-11-19T07:12:42;10.20;99.90
6662;DHT22;3367;48.714;8.994;2023-11-19T07:15:11;10.20;99.90
6662;DHT22;3367;48.714;8.994;2023-11-19T07:17:39;10.20;99.90
6662;DHT22;3367;48.714;8.994;2023-11-19T07:20:10;10.20;99.90
6662;DHT22;3367;48.714;8.994;2023-11-19T07:22:42;10.20;99.90
6662;DHT22;3367;48.714;8.994;2023-11-19T07:25:11;10.30;1.00
6662;DHT22;3367;48.714;8.994;2023-11-19T07:27:41;10.30;1.00
6662;DHT22;3367;48.714;8.994;2023-11-19T07:30:08;10.40;1.00
6662;DHT22;3367;48.714;8.994;2023-11-19T07:32:37;10.40;1.00
6662;DHT22;3367;48.714;8.994;2023-11-19T07:35:05;10.40;99.90
6662;DHT22;3367;48.714;8.994;2023-11-19T07:37:35;10.50;99.90
6662;DHT22;3367;48.714;8.994;2023-11-19T07:40:05;10.50;99.90
6662;DHT22;3367;48.714;8.994;2023-11-19T07:42:32;10.50;99.90
6662;DHT22;3367;48.714;8.994;2023-11-19T07:44:59;10.50;99.90
6662;DHT22;3367;48.714;8.994;2023-11-19T07:47:26;10.60;99.90
6662;DHT22;3367;48.714;8.994;2023-11-19T07:49:55;10.70;99.90
6662;DHT22;3367;48.714;8.994;2023-11-19T07:52:22;10.70;99.90
6662;DHT22;3367;48.714;8.994;2023-11-19T07:54:49;10.70;99.90
6662;DHT22;3367;48.714;8.994;2023-11-19T07:57:14;10.60;99.90
6662;DHT22;3367;48.714;8.994;2023-11-19T07:59:44;10.70;99.90
6662;DHT22;3367;48.714;8.994;2023-11-19T08:02:11;10.70;99.90
6662;DHT22;3367;48.714;8.994;2023-11-19T08:04:38;10.70;99.90
6662;DHT22;3367;48.714;8.994;2023-11-19T08:07:11;10.70;99.90
6662;DHT22;3367;48.714;8.994;2023-11-19T08:09:38;10.70;99.90
6662;DHT22;3367;48.714;8.994;2023-11-19T08:12:06;10.60;99.90
6662;DHT22;3367;48.714;8.994;2023-11-19T08:14:34;10.70;99.90
6662;DHT22;3367;48.714;8.994;2023-11-19T08:17:02;10.70;99.90
6662;DHT22;3367;48.714;8.994;2023-11-19T08:19:30;10.80;99.90
6662;DHT22;3367;48.714;8.994;2023-11-19T08:21:56;10.80;99.90
6662;DHT22;3367;48.714;8.994;2023-11-19T08:24:27;10.90;99.90
6662;DHT22;3367;48.714;8.994;2023-11-19T08:26:53;10.90;99.90
6662;DHT22;3367;48.714;8.994;2023-11-19T08:29:22;11.00;99.90
6662;DHT22;3367;48.714;8.994;2023-11-19T08:31:50;11.00;64.90
6662;DHT22;3367;48.714;8.994;2023-11-19T08:34:25;11.10;1.00
6662;DHT22;3367;48.714;8.994;2023-11-19T08:36:52;11.20;4.70
6662;DHT22;3367;48.714;8.994;2023-11-19T08:39:23;11.20;1.00
6662;DHT22;3367;48.714;8.994;2023-11-19T08:41:53;11.30;1.00
6662;DHT22;3367;48.714;8.994;2023-11-19T08:44:22;11.30;1.00
6662;DHT22;3367;48.714;8.994;2023-11-19T08:46:56;11.30;1.00
6662;DHT22;3367;48.714;8.994;2023-11-19T08:49:26;11.30;1.00
6662;DHT22;3367;48.714;8.994;2023-11-19T08:51:53;11.30;1.00
6662;DHT22;3367;48.714;8.994;2023-11-19T08:54:19;11.60;1.00
6662;DHT22;3367;48.714;8.994;2023-11-19T08:56:52;11.50;1.00
6662;DHT22;3367;48.714;8.994;2023-11-19T08:59:24;11.70;1.00
6662;DHT22;3367;48.714;8.994;2023-11-19T09:01:54;11.80;99.90
6662;DHT22;3367;48.714;8.994;2023-11-19T09:04:21;11.80;99.90
6662;DHT22;3367;48.714;8.994;2023-11-19T09:06:48;11.90;64.70
6662;DHT22;3367;48.714;8.994;2023-11-19T09:09:15;11.90;1.00
6662;DHT22;3367;48.714;8.994;2023-11-19T09:11:42;12.00;1.00
6662;DHT22;3367;48.714;8.994;2023-11-19T09:14:10;12.10;1.00
6662;DHT22;3367;48.714;8.994;2023-11-19T09:16:40;12.20;1.00
6662;DHT22;3367;48.714;8.994;2023-11-19T09:19:07;12.20;1.00
6662;DHT22;3367;48.714;8.994;2023-11-19T09:21:36;12.20;1.00
6662;DHT22;3367;48.714;8.994;2023-11-19T09:24:04;12.30;1.00
6662;DHT22;3367;48.714;8.994;2023-11-19T09:26:33;12.30;99.90
6662;DHT22;3367;48.714;8.994;2023-11-19T09:28:59;12.40;99.90
6662;DHT22;3367;48.714;8.994;2023-11-19T09:31:28;12.50;99.90
6662;DHT22;3367;48.714;8.994;2023-11-19T09:33:54;12.70;99.90
6662;DHT22;3367;48.714;8.994;2023-11-19T09:36:25;12.80;99.90
6662;DHT22;3367;48.714;8.994;2023-11-19T09:38:58;12.90;1.00
6662;DHT22;3367;48.714;8.994;2023-11-19T09:41:27;12.90;1.00
6662;DHT22;3367;48.714;8.994;2023-11-19T09:43:54;12.90;1.00
6662;DHT22;3367;48.714;8.994;2023-11-19T09:46:21;12.90;1.00
6662;DHT22;3367;48.714;8.994;2023-11-19T09:48:52;12.80;1.00
6662;DHT22;3367;48.714;8.994;2023-11-19T09:51:20;12.90;1.00
6662;DHT22;3367;48.714;8.994;2023-11-19T09:53:47;13.00;1.00
6662;DHT22;3367;48.714;8.994;2023-11-19T09:56:14;13.00;1.00
6662;DHT22;3367;48.714;8.994;2023-11-19T09:58:42;13.10;99.90
6662;DHT22;3367;48.714;8.994;2023-11-19T10:01:09;13.10;99.90
6662;DHT22;3367;48.714;8.994;2023-11-19T10:03:37;13.00;99.90
6662;DHT22;3367;48.714;8.994;2023-11-19T10:06:08;13.00;99.90
6662;DHT22;3367;48.714;8.994;2023-11-19T10:08:37;13.00;99.90
6662;DHT22;3367;48.714;8.994;2023-11-19T10:11:05;13.10;99.90
6662;DHT22;3367;48.714;8.994;2023-11-19T10:13:31;13.10;99.90
6662;DHT22;3367;48.714;8.994;2023-11-19T10:16:04;13.30;99.90
6662;DHT22;3367;48.714;8.994;2023-11-19T10:18:31;13.50;1.00
6662;DHT22;3367;48.714;8.994;2023-11-19T10:21:03;13.70;1.00
6662;DHT22;3367;48.714;8.994;2023-11-19T10:23:48;13.90;99.90
6662;DHT22;3367;48.714;8.994;2023-11-19T10:26:15;13.90;1.00
6662;DHT22;3367;48.714;8.994;2023-11-19T10:28:41;14.00;1.00
6662;DHT22;3367;48.714;8.994;2023-11-19T10:31:11;13.90;99.90
6662;DHT22;3367;48.714;8.994;2023-11-19T10:33:38;14.00;1.00
6662;DHT22;3367;48.714;8.994;2023-11-19T10:36:06;14.00;99.90
6662;DHT22;3367;48.714;8.994;2023-11-19T10:38:34;14.00;99.90
6662;DHT22;3367;48.714;8.994;2023-11-19T10:41:01;14.10;1.00
6662;DHT22;3367;48.714;8.994;2023-11-19T10:43:28;14.20;99.90
6662;DHT22;3367;48.714;8.994;2023-11-19T10:46:09;14.20;99.90
6662;DHT22;3367;48.714;8.994;2023-11-19T10:48:36;14.20;1.00
6662;DHT22;3367;48.714;8.994;2023-11-19T10:51:05;14.20;1.00
6662;DHT22;3367;48.714;8.994;2023-11-19T10:53:36;14.20;99.90
6662;DHT22;3367;48.714;8.994;2023-11-19T10:56:06;14.30;99.90
6662;DHT22;3367;48.714;8.994;2023-11-19T10:58:37;14.60;99.90
6662;DHT22;3367;48.714;8.994;2023-11-19T11:01:09;14.70;1.00
6662;DHT22;3367;48.714;8.994;2023-11-19T11:03:39;14.90;1.00
6662;DHT22;3367;48.714;8.994;2023-11-19T11:06:07;14.90;1.00
6662;DHT22;3367;48.714;8.994;2023-11-19T11:08:37;14.90;1.00
6662;DHT22;3367;48.714;8.994;2023-11-19T11:11:06;14.90;1.00
6662;DHT22;3367;48.714;8.994;2023-11-19T11:13:33;14.90;1.00
6662;DHT22;3367;48.714;8.994;2023-11-19T11:16:01;15.00;1.00
6662;DHT22;3367;48.714;8.994;2023-11-19T11:18:32;15.00;1.00
6662;DHT22;3367;48.714;8.994;2023-11-19T11:21:02;15.10;1.00
6662;DHT22;3367;48.714;8.994;2023-11-19T11:23:56;15.10;1.00
6662;DHT22;3367;48.714;8.994;2023-11-19T11:26:41;15.00;1.00
6662;DHT22;3367;48.714;8.994;2023-11-19T11:29:20;14.90;1.00
6662;DHT22;3367;48.714;8.994;2023-11-19T11:31:59;14.80;1.00
6662;DHT22;3367;48.714;8.994;2023-11-19T11:34:44;14.70;1.00
6662;DHT22;3367;48.714;8.994;2023-11-19T11:37:18;14.60;1.00
6662;DHT22;3367;48.714;8.994;2023-11-19T11:39:47;14.50;1.00
6662;DHT22;3367;48.714;8.994;2023-11-19T11:42:33;14.40;1.00
6662;DHT22;3367;48.714;8.994;2023-11-19T11:45:01;14.40;1.00
6662;DHT22;3367;48.714;8.994;2023-11-19T11:48:08;14.40;1.00
6662;DHT22;3367;48.714;8.994;2023-11-19T11:50:48;14.40;1.00
6662;DHT22;3367;48.714;8.994;2023-11-19T11:53:19;14.20;1.00
6662;DHT22;3367;48.714;8.994;2023-11-19T11:55:59;14.40;1.00
6662;DHT22;3367;48.714;8.994;2023-11-19T11:58:35;14.30;1.00
6662;DHT22;3367;48.714;8.994;2023-11-19T12:01:04;14.40;1.00
6662;DHT22;3367;48.714;8.994;2023-11-19T12:03:37;14.20;1.00
6662;DHT22;3367;48.714;8.994;2023-11-19T12:06:05;14.20;1.00
6662;DHT22;3367;48.714;8.994;2023-11-19T12:08:34;14.10;1.00
6662;DHT22;3367;48.714;8.994;2023-11-19T12:11:03;14.10;1.00
6662;DHT22;3367;48.714;8.994;2023-11-19T12:13:46;14.10;1.00
6662;DHT22;3367;48.714;8.994;2023-11-19T12:16:14;14.20;1.00
6662;DHT22;3367;48.714;8.994;2023-11-19T12:18:44;14.20;1.00
6662;DHT22;3367;48.714;8.994;2023-11-19T12:21:11;14.30;1.00
6662;DHT22;3367;48.714;8.994;2023-11-19T12:23:45;14.30;1.00
6662;DHT22;3367;48.714;8.994;2023-11-19T12:26:36;14.40;1.00
6662;DHT22;3367;48.714;8.994;2023-11-19T12:29:03;14.40;99.90
6662;DHT22;3367;48.714;8.994;2023-11-19T12:31:36;14.30;99.90
6662;DHT22;3367;48.714;8.994;2023-11-19T12:34:09;14.30;99.90
6662;DHT22;3367;48.714;8.994;2023-11-19T12:36:40;14.30;99.90
6662;DHT22;3367;48.714;8.994;2023-11-19T12:39:08;14.40;99.90
6662;DHT22;3367;48.714;8.994;2023-11-19T12:41:53;14.50;99.90
6662;DHT22;3367;48.714;8.994;2023-11-19T12:44:22;14.70;99.90
6662;DHT22;3367;48.714;8.994;2023-11-19T12:47:03;14.80;99.90
6662;DHT22;3367;48.714;8.994;2023-11-19T12:49:30;14.80;99.90
6662;DHT22;3367;48.714;8.994;2023-11-19T12:51:57;14.80;99.90
6662;DHT22;3367;48.714;8.994;2023-11-19T12:54:34;14.80;71.90
6662;DHT22;3367;48.714;8.994;2023-11-19T12:57:05;14.80;96.80
6662;DHT22;3367;48.714;8.994;2023-11-19T12:59:34;14.80;1.00
6662;DHT22;3367;48.714;8.994;2023-11-19T13:02:03;14.60;1.00
6662;DHT22;3367;48.714;8.994;2023-11-19T13:04:31;14.50;1.00
6662;DHT22;3367;48.714;8.994;2023-11-19T13:06:58;14.50;1.00
6662;DHT22;3367;48.714;8.994;2023-11-19T13:09:31;14.50;1.00
6662;DHT22;3367;48.714;8.994;2023-11-19T13:11:58;14.60;1.00
6662;DHT22;3367;48.714;8.994;2023-11-19T13:14:37;14.60;1.00
6662;DHT22;3367;48.714;8.994;2023-11-19T13:17:06;14.80;1.00
6662;DHT22;3367;48.714;8.994;2023-11-19T13:19:33;14.70;1.00
6662;DHT22;3367;48.714;8.994;2023-11-19T13:21:59;15.00;1.00
6662;DHT22;3367;48.714;8.994;2023-11-19T13:24:29;15.40;1.00
6662;DHT22;3367;48.714;8.994;2023-11-19T13:26:56;15.60;1.00
6662;DHT22;3367;48.714;8.994;2023-11-19T13:29:28;15.60;1.00
6662;DHT22;3367;48.714;8.994;2023-11-19T13:31:59;15.60;1.00
6662;DHT22;3367;48.714;8.994;2023-11-19T13:34:29;15.60;1.00
6662;DHT22;3367;48.714;8.994;2023-11-19T13:36:58;15.30;1.00
6662;DHT22;3367;48.714;8.994;2023-11-19T13:39:25;15.10;1.00
6662;DHT22;3367;48.714;8.994;2023-11-19T13:41:52;14.90;1.00
6662;DHT22;3367;48.714;8.994;2023-11-19T13:44:19;14.70;1.00
6662;DHT22;3367;48.714;8.994;2023-11-19T13:46:47;14.60;1.00
6662;DHT22;3367;48.714;8.994;2023-11-19T13:49:15;14.60;1.00
6662;DHT22;3367;48.714;8.994;2023-11-19T13:51:42;14.40;1.00
6662;DHT22;3367;48.714;8.994;2023-11-19T13:54:09;14.30;1.00
6662;DHT22;3367;48.714;8.994;2023-11-19T13:56:46;14.20;1.00
6662;DHT22;3367;48.714;8.994;2023-11-19T13:59:12;14.20;1.00
6662;DHT22;3367;48.714;8.994;2023-11-19T14:01:39;14.00;1.00
6662;DHT22;3367;48.714;8.994;2023-11-19T14:04:12;14.00;1.00
6662;DHT22;3367;48.714;8.994;2023-11-19T14:06:40;14.00;1.00
6662;DHT22;3367;48.714;8.994;2023-11-19T14:09:12;14.00;1.00
6662;DHT22;3367;48.714;8.994;2023-11-19T14:11:39;13.90;1.00
6662;DHT22;3367;48.714;8.994;2023-11-19T14:14:08;13.90;1.00
6662;DHT22;3367;48.714;8.994;2023-11-19T14:16:35;13.80;1.00
6662;DHT22;3367;48.714;8.994;2023-11-19T14:19:03;13.80;1.00
6662;DHT22;3367;48.714;8.994;2023-11-19T14:21:29;13.80;1.00
6662;DHT22;3367;48.714;8.994;2023-11-19T14:23:58;13.70;1.00
6662;DHT22;3367;48.714;8.994;2023-11-19T14:26:25;13.70;1.00
6662;DHT22;3367;48.714;8.994;2023-11-19T14:28:52;13.60;1.00
6662;DHT22;3367;48.714;8.994;2023-11-19T14:31:21;13.60;1.00
6662;DHT22;3367;48.714;8.994;2023-11-19T14:33:51;13.50;1.00
6662;DHT22;3367;48.714;8.994;2023-11-19T14:36:17;13.50;1.00
6662;DHT22;3367;48.714;8.994;2023-11-19T14:38:54;13.40;1.00
6662;DHT22;3367;48.714;8.994;2023-11-19T14:41:22;13.30;1.00
6662;DHT22;3367;48.714;8.994;2023-11-19T14:43:49;13.30;1.00
6662;DHT22;3367;48.714;8.994;2023-11-19T14:46:18;13.20;1.00
6662;DHT22;3367;48.714;8.994;2023-11-19T14:48:54;13.20;1.00
6662;DHT22;3367;48.714;8.994;2023-11-19T14:51:21;13.10;1.00
6662;DHT22;3367;48.714;8.994;2023-11-19T14:53:51;13.00;1.00
6662;DHT22;3367;48.714;8.994;2023-11-19T14:56:18;13.00;1.00
6662;DHT22;3367;48.714;8.994;2023-11-19T14:58:46;12.90;1.00
6662;DHT22;3367;48.714;8.994;2023-11-19T15:01:19;12.80;1.00
6662;DHT22;3367;48.714;8.994;2023-11-19T15:03:54;12.80;1.00
6662;DHT22;3367;48.714;8.994;2023-11-19T15:06:23;12.80;1.00
6662;DHT22;3367;48.714;8.994;2023-11-19T15:08:57;12.80;1.00
6662;DHT22;3367;48.714;8.994;2023-11-19T15:11:27;12.60;1.00
6662;DHT22;3367;48.714;8.994;2023-11-19T15:13:58;12.50;1.00
6662;DHT22;3367;48.714;8.994;2023-11-19T15:16:25;12.40;1.00
6662;DHT22;3367;48.714;8.994;2023-11-19T15:18:56;12.40;1.00
6662;DHT22;3367;48.714;8.994;2023-11-19T15:21:31;12.40;1.00
6662;DHT22;3367;48.714;8.994;2023-11-19T15:23:58;12.20;1.00
6662;DHT22;3367;48.714;8.994;2023-11-19T15:26:27;12.20;1.00
6662;DHT22;3367;48.714;8.994;2023-11-19T15:28:58;12.10;1.00
6662;DHT22;3367;48.714;8.994;2023-11-19T15:31:28;12.00;1.00
6662;DHT22;3367;48.714;8.994;2023-11-19T15:33:55;11.90;1.00
6662;DHT22;3367;48.714;8.994;2023-11-19T15:36:22;11.90;1.00
6662;DHT22;3367;48.714;8.994;2023-11-19T15:38:48;11.70;1.00
6662;DHT22;3367;48.714;8.994;2023-11-19T15:41:18;11.60;1.00
6662;DHT22;3367;48.714;8.994;2023-11-19T15:43:45;11.60;1.00
6662;DHT22;3367;48.714;8.994;2023-11-19T15:46:13;11.50;1.00
6662;DHT22;3367;48.714;8.994;2023-11-19T15:48:44;11.80;1.00
6662;DHT22;3367;48.714;8.994;2023-11-19T15:51:30;11.60;1.00
6662;DHT22;3367;48.714;8.994;2023-11-19T15:53:57;11.60;1.00
6662;DHT22;3367;48.714;8.994;2023-11-19T15:56:27;11.50;1.00
6662;DHT22;3367;48.714;8.994;2023-11-19T15:58:56;11.40;1.00
6662;DHT22;3367;48.714;8.994;2023-11-19T16:01:31;11.40;16.10
6662;DHT22;3367;48.714;8.994;2023-11-19T16:03:58;11.40;33.50
6662;DHT22;3367;48.714;8.994;2023-11-19T16:06:25;11.30;58.20
6662;DHT22;3367;48.714;8.994;2023-11-19T16:08:54;11.20;96.30
6662;DHT22;3367;48.714;8.994;2023-11-19T16:11:24;11.10;99.90
6662;DHT22;3367;48.714;8.994;2023-11-19T16:13:51;11.00;99.90
6662;DHT22;3367;48.714;8.994;2023-11-19T16:16:18;11.00;99.90
6662;DHT22;3367;48.714;8.994;2023-11-19T16:18:56;10.90;99.90
6662;DHT22;3367;48.714;8.994;2023-11-19T16:21:34;10.80;99.90
6662;DHT22;3367;48.714;8.994;2023-11-19T16:24:08;10.80;99.90
6662;DHT22;3367;48.714;8.994;2023-11-19T16:26:34;10.70;99.90
6662;DHT22;3367;48.714;8.994;2023-11-19T16:29:02;10.70;99.90
6662;DHT22;3367;48.714;8.994;2023-11-19T16:31:32;10.70;99.90